Weather at Coorabie Airport

Public forecast

Using degrees Celsius for public forecast. Weather courtesy of forecast.io.

Closest aviation weather report (METAR) to Coorabie Airport

Closest report is Ceduna Airport, 73.4 nm (135.9 km) ESE. Retrieved 2021/06/20 10:00 UTC (5 minutes ago):

YCDU 201000Z AUTO 11009KT 9999 // NCD 08/05 Q1023

Closest aviation forecast (TAF) to Coorabie Airport

Forecast is more than 12 hours old.

Closest forecast is Forrest Airport, 223.5 nm (413.9 km) WNW. Retrieved 2021/06/19 14:00 UTC (20 hours ago):

TAF YFRT 191235Z 1914/2002 04008KT CAVOK